Terminal Aerodrome Forecast
Issued by NWS Jackson, KY

Home | Current Version | Previous Version | Text Only | Print | Product List | Glossary On
Versions: 1 2 3 4 5 6 7 8 9 10 11 12 13 14 15 16 17
000
FTUS43 KJKL 222343
TAFJKL
TAF
KJKL 222343Z 2300/2324 VRB03KT 3SM RA BR BKN010 BKN040
     FM230100 VRB03KT P6SM -SHRA SCT004 BKN070
     FM230400 VRB03KT 6SM BR VCSH OVC040 WS020/20035KT
     FM231500 21006G15KT P6SM VCTS OVC035CB
     FM232100 21007G15KT 6SM SHRA VCTS OVC025CB=

USA.gov is the U.S. government's official web portal to all federal, state and local government web resources and services.